createdAt,value
2023-03-22T00:00:44.881Z,94951.00
2023-03-22T00:01:44.853Z,94955.00
2023-03-22T00:02:44.883Z,94953.00
2023-03-22T00:03:44.801Z,94955.00
2023-03-22T00:04:44.749Z,94953.00
2023-03-22T00:05:44.747Z,94955.00
2023-03-22T00:16:44.347Z,94951.00
2023-03-22T00:17:44.326Z,94951.00
2023-03-22T00:18:44.326Z,94949.00
2023-03-22T02:27:42.109Z,94914.00
2023-03-22T02:28:42.088Z,94916.00
2023-03-22T02:29:42.114Z,94918.00
2023-03-22T02:30:42.052Z,94916.00
2023-03-22T02:31:42.061Z,94916.00
2023-03-22T02:32:42.072Z,94916.00
2023-03-22T06:00:49.210Z,94936.00
2023-03-22T06:45:48.556Z,94934.00
2023-03-22T06:46:40.996Z,94936.00
2023-03-22T06:48:40.924Z,94930.00
2023-03-22T06:53:40.660Z,94932.00
2023-03-22T06:54:40.643Z,94928.00
2023-03-22T06:55:40.633Z,94930.00
2023-03-22T06:56:40.503Z,94926.00
2023-03-22T06:57:40.521Z,94928.00
2023-03-22T06:58:40.472Z,94930.00
2023-03-22T06:59:40.515Z,94930.00
2023-03-22T07:00:40.620Z,94930.00
2023-03-22T07:01:40.376Z,94930.00
2023-03-22T07:02:40.295Z,94930.00
2023-03-22T07:03:40.271Z,94930.00
2023-03-22T07:04:40.301Z,94930.00
2023-03-22T07:05:40.187Z,94932.00
2023-03-22T07:06:40.132Z,94934.00
2023-03-22T07:07:40.106Z,94938.00
2023-03-22T07:08:40.082Z,94938.00
2023-03-22T07:09:40.092Z,94936.00
2023-03-22T07:10:40.282Z,94936.00
2023-03-22T07:11:40.000Z,94934.00
2023-03-22T07:12:39.905Z,94934.00
2023-03-22T07:13:39.861Z,94934.00
2023-03-22T07:14:39.856Z,94934.00
2023-03-22T07:15:39.859Z,94934.00
2023-03-22T07:16:39.980Z,94930.00
2023-03-22T07:17:39.868Z,94934.00
2023-03-22T07:18:39.865Z,94932.00
2023-03-22T07:19:39.752Z,94932.00
2023-03-22T07:20:40.060Z,94932.00
2023-03-22T07:21:40.030Z,94932.00
2023-03-22T07:22:40.701Z,94934.00
2023-03-22T07:23:39.629Z,94934.00
2023-03-22T07:24:50.320Z,94932.00
2023-03-22T07:25:40.557Z,94934.00
2023-03-22T07:26:39.527Z,94934.00
2023-03-22T07:27:39.451Z,94932.00
2023-03-22T07:28:39.435Z,94932.00
2023-03-22T07:29:39.431Z,94932.00
2023-03-22T07:30:39.723Z,94932.00
2023-03-22T07:31:39.544Z,94930.00
2023-03-22T07:32:39.392Z,94932.00
2023-03-22T07:33:39.280Z,94930.00
2023-03-22T07:34:39.237Z,94930.00
2023-03-22T07:35:39.259Z,94932.00
2023-03-22T07:36:39.220Z,94934.00
2023-03-22T07:37:39.197Z,94932.00
2023-03-22T07:38:39.173Z,94930.00
2023-03-22T07:39:39.096Z,94930.00
2023-03-22T07:40:39.471Z,94928.00
2023-03-22T07:41:39.061Z,94928.00
2023-03-22T07:42:39.765Z,94928.00
2023-03-22T07:43:52.380Z,94922.00
2023-03-22T07:44:40.456Z,94926.00
2023-03-22T07:45:38.972Z,94920.00
2023-03-22T07:46:39.012Z,94922.00
2023-03-22T07:47:41.436Z,94920.00
2023-03-22T07:48:39.179Z,94924.00
2023-03-22T07:49:39.210Z,94924.00
2023-03-22T07:50:39.396Z,94922.00
2023-03-22T07:51:39.494Z,94922.00
2023-03-22T07:52:39.283Z,94922.00
2023-03-22T07:53:39.281Z,94920.00
2023-03-22T07:54:39.329Z,94920.00
2023-03-22T07:55:39.380Z,94922.00
2023-03-22T07:56:39.378Z,94920.00
2023-03-22T07:57:39.437Z,94918.00
2023-03-22T07:58:39.440Z,94920.00
2023-03-22T07:59:40.265Z,94918.00
2023-03-22T08:00:39.677Z,94914.00
2023-03-22T08:01:39.583Z,94914.00
2023-03-22T08:02:39.614Z,94918.00
2023-03-22T08:03:39.598Z,94916.00
2023-03-22T08:04:39.596Z,94916.00
2023-03-22T08:05:39.749Z,94914.00
2023-03-22T08:06:39.721Z,94912.00
2023-03-22T08:07:39.627Z,94912.00
2023-03-22T08:08:39.605Z,94912.00
2023-03-22T08:09:39.642Z,94914.00
2023-03-22T08:10:39.926Z,94908.00
2023-03-22T08:11:39.744Z,94912.00
2023-03-22T08:12:39.665Z,94910.00
2023-03-22T08:13:39.711Z,94908.00
2023-03-22T08:14:39.723Z,94910.00
2023-03-22T08:15:40.072Z,94910.00
2023-03-22T08:16:40.018Z,94908.00
2023-03-22T08:17:39.790Z,94906.00
2023-03-22T08:18:39.973Z,94904.00
2023-03-22T08:19:39.863Z,94906.00
2023-03-22T08:20:40.107Z,94906.00
2023-03-22T08:21:39.905Z,94904.00
2023-03-22T08:22:39.924Z,94900.00
2023-03-22T08:23:42.211Z,94906.00
2023-03-22T08:24:40.036Z,94908.00
2023-03-22T08:25:40.041Z,94904.00
2023-03-22T08:26:40.071Z,94902.00
2023-03-22T08:27:40.061Z,94900.00
2023-03-22T08:28:40.068Z,94898.00
2023-03-22T08:29:40.184Z,94898.00
2023-03-22T08:30:40.492Z,94904.00
2023-03-22T08:31:40.501Z,94902.00
2023-03-22T08:32:40.211Z,94900.00
2023-03-22T08:33:40.264Z,94900.00
2023-03-22T08:34:40.318Z,94902.00
2023-03-22T08:35:40.524Z,94898.00
2023-03-22T08:36:40.579Z,94900.00
2023-03-22T08:37:40.388Z,94900.00
2023-03-22T08:38:40.393Z,94896.00
2023-03-22T08:40:40.482Z,94894.00
2023-03-22T08:41:40.460Z,94900.00
2023-03-22T08:42:40.480Z,94896.00
2023-03-22T08:43:40.483Z,94896.00
2023-03-22T08:44:40.438Z,94892.00
2023-03-22T08:45:40.777Z,94892.00
2023-03-22T08:46:40.415Z,94885.00
2023-03-22T08:47:40.421Z,94885.00
2023-03-22T08:48:40.427Z,94879.00
2023-03-22T08:49:40.421Z,94877.00
2023-03-22T08:50:40.424Z,94877.00
2023-03-22T08:51:40.408Z,94875.00
2023-03-22T08:52:40.405Z,94875.00
2023-03-22T08:53:40.390Z,94873.00
2023-03-22T08:54:40.318Z,94873.00
2023-03-22T08:55:40.622Z,94873.00
2023-03-22T08:56:40.336Z,94867.00
2023-03-22T08:57:40.411Z,94865.00
2023-03-22T08:58:40.323Z,94863.00
2023-03-22T08:59:40.286Z,94861.00
2023-03-22T09:00:48.466Z,94859.00
2023-03-22T09:01:41.420Z,94857.00
2023-03-22T09:02:40.242Z,94853.00
2023-03-22T09:03:40.195Z,94851.00
2023-03-22T09:04:40.190Z,94853.00
2023-03-22T09:05:40.411Z,94847.00
2023-03-22T09:06:40.548Z,94849.00
2023-03-22T09:07:40.083Z,94845.00
2023-03-22T09:08:40.002Z,94843.00
2023-03-22T09:09:39.993Z,94843.00
2023-03-22T09:10:39.993Z,94845.00
2023-03-22T09:11:39.928Z,94845.00
2023-03-22T09:12:39.857Z,94843.00
2023-03-22T09:13:39.817Z,94843.00
2023-03-22T09:14:39.768Z,94845.00
2023-03-22T09:15:40.129Z,94843.00
2023-03-22T09:16:40.149Z,94843.00
2023-03-22T09:17:39.733Z,94836.00
2023-03-22T09:18:39.694Z,94836.00
2023-03-22T09:19:39.729Z,94834.00
2023-03-22T09:20:40.005Z,94832.00
2023-03-22T09:21:39.721Z,94834.00
2023-03-22T09:22:39.618Z,94830.00
2023-03-22T09:23:39.615Z,94830.00
2023-03-22T09:24:39.631Z,94826.00
2023-03-22T09:25:39.835Z,94824.00
2023-03-22T09:26:39.608Z,94820.00
2023-03-22T09:27:39.543Z,94820.00
2023-03-22T09:28:39.574Z,94818.00
2023-03-22T09:29:39.545Z,94818.00
2023-03-22T09:30:39.851Z,94818.00
2023-03-22T09:31:39.676Z,94820.00
2023-03-22T09:32:39.574Z,94816.00
2023-03-22T09:33:39.538Z,94810.00
2023-03-22T09:34:39.507Z,94812.00
2023-03-22T09:35:39.776Z,94806.00
2023-03-22T09:36:40.024Z,94812.00
2023-03-22T09:37:39.510Z,94808.00
2023-03-22T09:38:39.531Z,94808.00
2023-03-22T09:39:39.535Z,94806.00
2023-03-22T09:40:39.637Z,94806.00
2023-03-22T09:41:40.055Z,94802.00
2023-03-22T09:42:39.554Z,94802.00
2023-03-22T09:43:39.565Z,94800.00
2023-03-22T09:44:39.561Z,94798.00
2023-03-22T09:45:39.920Z,94798.00
2023-03-22T09:46:39.669Z,94796.00
2023-03-22T09:47:44.799Z,94794.00
2023-03-22T09:48:40.617Z,94792.00
2023-03-22T09:49:52.610Z,94789.00
2023-03-22T09:50:40.539Z,94785.00
2023-03-22T09:51:39.596Z,94785.00
2023-03-22T09:52:39.522Z,94783.00
2023-03-22T09:53:39.420Z,94781.00
2023-03-22T09:54:39.377Z,94779.00
2023-03-22T09:55:39.511Z,94779.00
2023-03-22T09:56:39.297Z,94775.00
2023-03-22T09:57:39.252Z,94773.00
2023-03-22T09:58:39.262Z,94773.00
2023-03-22T09:59:39.165Z,94773.00
2023-03-22T10:00:39.654Z,94773.00
2023-03-22T10:01:39.340Z,94767.00
2023-03-22T10:02:39.242Z,94769.00
2023-03-22T10:03:39.623Z,94769.00
2023-03-22T10:04:39.521Z,94763.00
2023-03-22T10:05:39.479Z,94761.00
2023-03-22T10:06:39.245Z,94763.00
2023-03-22T10:07:39.214Z,94759.00
2023-03-22T10:08:39.274Z,94755.00
2023-03-22T10:09:39.289Z,94757.00
2023-03-22T10:10:39.282Z,94755.00
2023-03-22T10:11:39.302Z,94751.00
2023-03-22T10:12:40.018Z,94751.00
2023-03-22T10:13:39.313Z,94747.00
2023-03-22T10:14:39.317Z,94747.00
2023-03-22T10:15:39.640Z,94744.00
2023-03-22T10:16:39.379Z,94742.00
2023-03-22T10:17:39.394Z,94742.00
2023-03-22T10:18:39.397Z,94740.00
2023-03-22T10:19:39.413Z,94738.00
2023-03-22T10:20:39.375Z,94734.00
2023-03-22T10:21:39.419Z,94732.00
2023-03-22T10:22:39.514Z,94730.00
2023-03-22T10:23:39.457Z,94732.00
2023-03-22T10:24:39.482Z,94728.00
2023-03-22T10:25:39.688Z,94728.00
2023-03-22T10:26:39.456Z,94726.00
2023-03-22T10:27:39.490Z,94724.00
2023-03-22T10:28:39.460Z,94722.00
2023-03-22T10:29:39.520Z,94720.00
2023-03-22T10:30:39.751Z,94718.00
2023-03-22T10:31:39.605Z,94720.00
2023-03-22T10:32:54.801Z,94720.00
2023-03-22T10:33:40.482Z,94716.00
2023-03-22T10:34:39.480Z,94714.00
2023-03-22T10:35:39.696Z,94714.00
2023-03-22T10:36:39.368Z,94714.00
2023-03-22T10:37:39.283Z,94710.00
2023-03-22T10:38:39.268Z,94712.00
2023-03-22T10:39:40.052Z,94708.00
2023-03-22T10:40:39.182Z,94704.00
2023-03-22T10:41:39.119Z,94704.00
2023-03-22T10:42:40.069Z,94706.00
2023-03-22T10:43:39.115Z,94706.00
2023-03-22T10:44:39.068Z,94700.00
2023-03-22T10:45:39.460Z,94700.00
2023-03-22T10:46:39.110Z,94698.00
2023-03-22T10:47:39.525Z,94698.00
2023-03-22T10:48:39.141Z,94697.00
2023-03-22T10:49:39.096Z,94695.00
2023-03-22T10:50:39.081Z,94697.00
2023-03-22T10:51:39.092Z,94695.00
2023-03-22T10:52:39.553Z,94691.00
2023-03-22T10:53:39.096Z,94691.00
2023-03-22T10:54:39.135Z,94689.00
2023-03-22T10:55:39.469Z,94689.00
2023-03-22T10:56:40.029Z,94689.00
2023-03-22T10:57:39.120Z,94687.00
2023-03-22T10:58:40.025Z,94687.00
2023-03-22T10:59:39.180Z,94685.00
2023-03-22T11:00:42.221Z,94683.00
2023-03-22T11:01:39.287Z,94683.00
2023-03-22T11:02:39.252Z,94681.00
2023-03-22T11:03:39.031Z,94679.00
2023-03-22T11:04:38.990Z,94679.00
2023-03-22T11:05:39.222Z,94679.00
2023-03-22T11:06:38.916Z,94675.00
2023-03-22T11:07:38.864Z,94675.00
2023-03-22T11:08:39.115Z,94673.00
2023-03-22T11:09:38.761Z,94673.00
2023-03-22T11:10:38.837Z,94667.00
2023-03-22T11:11:38.749Z,94667.00
2023-03-22T11:12:40.104Z,94665.00
2023-03-22T11:13:39.021Z,94667.00
2023-03-22T11:14:38.591Z,94663.00
2023-03-22T11:15:38.796Z,94661.00
2023-03-22T11:16:38.569Z,94659.00
2023-03-22T11:17:38.493Z,94659.00
2023-03-22T11:18:38.409Z,94659.00
2023-03-22T11:19:38.397Z,94657.00
2023-03-22T11:20:38.670Z,94653.00
2023-03-22T11:21:38.304Z,94655.00
2023-03-22T11:22:38.268Z,94651.00
2023-03-22T11:23:38.400Z,94651.00
2023-03-22T11:24:39.046Z,94649.00
2023-03-22T11:25:38.228Z,94651.00
2023-03-22T11:26:40.858Z,94649.00
2023-03-22T11:27:38.105Z,94649.00
2023-03-22T11:28:38.104Z,94647.00
2023-03-22T11:29:37.997Z,94645.00
2023-03-22T11:30:38.020Z,94643.00
2023-03-22T11:31:37.968Z,94638.00
2023-03-22T11:32:38.014Z,94636.00
2023-03-22T11:33:38.571Z,94628.00
2023-03-22T11:34:37.824Z,94626.00
2023-03-22T11:35:37.787Z,94622.00
2023-03-22T11:36:37.792Z,94620.00
2023-03-22T11:37:37.664Z,94620.00
2023-03-22T11:38:38.084Z,94620.00
2023-03-22T11:39:37.577Z,94614.00
2023-03-22T11:40:37.682Z,94612.00
2023-03-22T11:41:37.572Z,94612.00
2023-03-22T11:42:37.491Z,94612.00
2023-03-22T11:43:37.614Z,94608.00
2023-03-22T11:44:37.398Z,94608.00
2023-03-22T11:45:37.593Z,94606.00
2023-03-22T11:46:37.367Z,94602.00
2023-03-22T11:47:37.310Z,94602.00
2023-03-22T11:48:37.356Z,94600.00
2023-03-22T11:49:37.187Z,94598.00
2023-03-22T11:50:37.181Z,94597.00
2023-03-22T11:51:37.136Z,94595.00
2023-03-22T11:52:37.035Z,94593.00
2023-03-22T11:53:37.054Z,94587.00
2023-03-22T11:54:36.965Z,94587.00
2023-03-22T11:55:36.928Z,94585.00
2023-03-22T11:56:36.961Z,94585.00
2023-03-22T11:57:36.911Z,94583.00
2023-03-22T11:58:37.044Z,94579.00
2023-03-22T11:59:36.810Z,94577.00
2023-03-22T12:00:36.765Z,94575.00
2023-03-22T12:01:36.741Z,94575.00
2023-03-22T12:02:36.777Z,94575.00
2023-03-22T12:03:39.057Z,94571.00
2023-03-22T12:04:36.671Z,94571.00
2023-03-22T12:05:36.631Z,94571.00
2023-03-22T12:06:36.646Z,94571.00
2023-03-22T12:07:36.614Z,94567.00
2023-03-22T12:08:36.507Z,94569.00
2023-03-22T12:09:36.456Z,94567.00
2023-03-22T12:10:36.420Z,94563.00
2023-03-22T12:11:36.433Z,94563.00
2023-03-22T12:12:36.326Z,94559.00
2023-03-22T12:13:36.659Z,94559.00
2023-03-22T12:14:36.238Z,94557.00
2023-03-22T12:15:36.214Z,94555.00
2023-03-22T12:16:36.278Z,94555.00
2023-03-22T12:17:36.217Z,94550.00
2023-03-22T12:18:36.048Z,94551.00
2023-03-22T12:19:36.004Z,94548.00
2023-03-22T12:20:35.984Z,94546.00
2023-03-22T12:21:35.954Z,94544.00
2023-03-22T12:22:35.900Z,94540.00
2023-03-22T12:23:35.895Z,94536.00
2023-03-22T12:24:35.826Z,94534.00
2023-03-22T12:25:35.730Z,94532.00
2023-03-22T12:26:35.676Z,94532.00
2023-03-22T12:27:35.719Z,94532.00
2023-03-22T12:28:36.105Z,94530.00
2023-03-22T12:29:35.630Z,94526.00
2023-03-22T12:30:35.539Z,94526.00
2023-03-22T12:31:35.523Z,94524.00
2023-03-22T12:32:35.492Z,94526.00
2023-03-22T12:33:35.601Z,94520.00
2023-03-22T12:34:35.440Z,94522.00
2023-03-22T12:35:35.496Z,94522.00
2023-03-22T12:36:35.290Z,94516.00
2023-03-22T12:37:35.214Z,94516.00
2023-03-22T12:38:35.559Z,94514.00
2023-03-22T12:39:35.164Z,94510.00
2023-03-22T12:40:35.101Z,94508.00
2023-03-22T12:41:35.041Z,94504.00
2023-03-22T12:42:40.677Z,94504.00
2023-03-22T12:43:36.116Z,94502.00
2023-03-22T12:44:34.913Z,94500.00
2023-03-22T12:45:34.878Z,94500.00
2023-03-22T12:46:34.880Z,94498.00
2023-03-22T12:47:34.891Z,94495.00
2023-03-22T12:48:34.913Z,94493.00
2023-03-22T12:49:34.715Z,94493.00
2023-03-22T12:50:34.651Z,94487.00
2023-03-22T12:51:34.672Z,94487.00
2023-03-22T12:52:44.772Z,94485.00
2023-03-22T12:53:35.565Z,94483.00
2023-03-22T12:54:34.570Z,94483.00
2023-03-22T12:55:34.476Z,94481.00
2023-03-22T12:56:34.418Z,94479.00
2023-03-22T12:57:34.394Z,94479.00
2023-03-22T12:58:34.387Z,94477.00
2023-03-22T12:59:34.343Z,94477.00
2023-03-22T13:00:34.290Z,94473.00
2023-03-22T13:01:34.279Z,94473.00
2023-03-22T13:02:34.255Z,94471.00
2023-03-22T13:03:34.434Z,94469.00
2023-03-22T13:04:34.247Z,94467.00
2023-03-22T13:05:34.279Z,94465.00
2023-03-22T13:06:34.292Z,94463.00
2023-03-22T13:07:34.279Z,94463.00
2023-03-22T13:08:34.295Z,94463.00
2023-03-22T13:09:34.313Z,94461.00
2023-03-22T13:10:34.340Z,94459.00
2023-03-22T13:11:34.306Z,94459.00
2023-03-22T13:12:34.329Z,94457.00
2023-03-22T13:13:34.359Z,94457.00
2023-03-22T13:14:34.377Z,94457.00
2023-03-22T13:15:41.831Z,94457.00
2023-03-22T13:16:35.354Z,94457.00
2023-03-22T13:17:34.319Z,94455.00
2023-03-22T13:18:34.262Z,94457.00
2023-03-22T13:19:34.249Z,94449.00
2023-03-22T13:20:34.236Z,94451.00
2023-03-22T13:21:34.960Z,94449.00
2023-03-22T13:22:34.102Z,94449.00
2023-03-22T13:23:34.093Z,94444.00
2023-03-22T13:24:34.031Z,94442.00
2023-03-22T13:25:34.016Z,94442.00
2023-03-22T13:26:34.018Z,94440.00
2023-03-22T13:27:34.017Z,94436.00
2023-03-22T13:28:34.062Z,94440.00
2023-03-22T13:29:34.104Z,94434.00
2023-03-22T13:30:34.071Z,94432.00
2023-03-22T13:31:34.117Z,94432.00
2023-03-22T13:32:34.139Z,94430.00
2023-03-22T13:33:34.098Z,94432.00
2023-03-22T13:34:34.586Z,94428.00
2023-03-22T13:35:34.111Z,94428.00
2023-03-22T13:36:34.143Z,94424.00
2023-03-22T13:37:34.119Z,94424.00
2023-03-22T13:38:34.166Z,94422.00
2023-03-22T13:39:34.170Z,94422.00
2023-03-22T13:40:34.170Z,94420.00
2023-03-22T13:41:34.159Z,94418.00
2023-03-22T13:42:34.103Z,94418.00
2023-03-22T13:43:34.177Z,94416.00
2023-03-22T13:44:34.187Z,94422.00
2023-03-22T13:45:34.204Z,94420.00
2023-03-22T13:46:34.240Z,94420.00
2023-03-22T13:47:34.255Z,94418.00
2023-03-22T13:48:36.161Z,94418.00
2023-03-22T13:49:34.264Z,94416.00
2023-03-22T13:50:34.234Z,94414.00
2023-03-22T13:51:34.297Z,94410.00
2023-03-22T13:52:34.248Z,94408.00
2023-03-22T13:53:34.281Z,94404.00
2023-03-22T13:54:34.311Z,94406.00
2023-03-22T13:55:34.321Z,94401.00
2023-03-22T13:56:34.391Z,94401.00
2023-03-22T13:57:34.371Z,94399.00
2023-03-22T13:58:34.391Z,94397.00
2023-03-22T13:59:34.619Z,94397.00
2023-03-22T14:00:34.408Z,94393.00
2023-03-22T14:01:34.422Z,94397.00
2023-03-22T14:02:34.464Z,94395.00
2023-03-22T14:03:34.575Z,94395.00
2023-03-22T14:04:34.436Z,94393.00
2023-03-22T14:05:34.498Z,94393.00
2023-03-22T14:06:34.506Z,94393.00
2023-03-22T14:07:34.540Z,94391.00
2023-03-22T14:08:34.465Z,94391.00
2023-03-22T14:09:34.547Z,94393.00
2023-03-22T14:10:34.511Z,94389.00
2023-03-22T14:11:34.537Z,94389.00
2023-03-22T14:12:34.539Z,94387.00
2023-03-22T14:13:34.624Z,94387.00
2023-03-22T14:14:34.622Z,94385.00
2023-03-22T14:15:34.624Z,94383.00
2023-03-22T14:16:34.570Z,94383.00
2023-03-22T14:17:34.649Z,94383.00
2023-03-22T14:18:34.677Z,94381.00
2023-03-22T14:19:34.686Z,94381.00
2023-03-22T14:20:34.605Z,94379.00
2023-03-22T14:21:34.650Z,94381.00
2023-03-22T14:46:02.496Z,94344.00
2023-03-22T14:47:02.538Z,94344.00
2023-03-22T14:48:02.539Z,94346.00
2023-03-22T14:49:02.592Z,94348.00
2023-03-22T14:50:02.630Z,94348.00
2023-03-22T14:51:02.639Z,94350.00
2023-03-22T14:52:04.410Z,94348.00
2023-03-22T14:53:02.717Z,94348.00
2023-03-22T14:54:02.788Z,94348.00
2023-03-22T14:55:02.769Z,94346.00
2023-03-22T14:56:02.798Z,94346.00
2023-03-22T14:59:02.873Z,94348.00
2023-03-22T15:00:03.389Z,94346.00
2023-03-22T15:01:02.890Z,94344.00
2023-03-22T15:02:03.092Z,94340.00
2023-03-22T15:03:02.923Z,94340.00
2023-03-22T15:04:03.751Z,94336.00
2023-03-22T15:06:02.964Z,94338.00
2023-03-22T15:07:02.972Z,94336.00
2023-03-22T15:08:03.020Z,94334.00
2023-03-22T15:09:03.038Z,94338.00
2023-03-22T15:10:03.013Z,94332.00
2023-03-22T15:11:03.052Z,94330.00
2023-03-22T15:13:03.085Z,94328.00
2023-03-22T15:15:03.157Z,94326.00
2023-03-22T15:16:03.434Z,94328.00
2023-03-22T15:17:03.145Z,94324.00
2023-03-22T15:18:03.138Z,94326.00
2023-03-22T15:23:03.239Z,94326.00
2023-03-22T15:24:03.243Z,94324.00
2023-03-22T15:25:03.279Z,94318.00
2023-03-22T15:26:03.408Z,94322.00
2023-03-22T15:27:03.403Z,94320.00
2023-03-22T15:28:03.400Z,94322.00
2023-03-22T15:29:03.429Z,94322.00
2023-03-22T15:30:03.491Z,94322.00
2023-03-22T15:31:03.509Z,94322.00
2023-03-22T15:32:03.531Z,94326.00
2023-03-22T15:33:03.557Z,94328.00
2023-03-22T15:34:03.625Z,94328.00
2023-03-22T15:35:03.681Z,94324.00
2023-03-22T15:41:03.874Z,94328.00
2023-03-22T15:42:03.927Z,94322.00
2023-03-22T15:43:03.998Z,94322.00
2023-03-22T15:44:04.041Z,94322.00
2023-03-22T15:52:04.306Z,94326.00
2023-03-22T15:53:04.371Z,94328.00
2023-03-22T15:54:04.370Z,94328.00
2023-03-22T15:55:04.397Z,94326.00
2023-03-22T15:56:04.436Z,94326.00
2023-03-22T15:57:04.492Z,94326.00
2023-03-22T15:58:04.505Z,94326.00
2023-03-22T15:59:04.506Z,94330.00
2023-03-22T16:00:04.573Z,94328.00
2023-03-22T16:01:04.666Z,94328.00
2023-03-22T16:02:04.624Z,94332.00
2023-03-22T16:03:04.710Z,94332.00
2023-03-22T16:04:04.705Z,94338.00
2023-03-22T16:05:04.754Z,94340.00
2023-03-22T16:06:04.758Z,94342.00
2023-03-22T16:07:04.807Z,94340.00
2023-03-22T16:08:04.841Z,94342.00
2023-03-22T16:09:05.456Z,94340.00
2023-03-22T16:10:04.906Z,94344.00
2023-03-22T16:11:04.942Z,94344.00
2023-03-22T16:12:04.972Z,94344.00
2023-03-22T16:13:05.027Z,94342.00
2023-03-22T16:14:05.021Z,94346.00
2023-03-22T16:15:05.200Z,94342.00
2023-03-22T16:16:05.153Z,94346.00
2023-03-22T16:17:05.153Z,94342.00
2023-03-22T16:18:05.186Z,94340.00
2023-03-22T16:19:05.221Z,94344.00
2023-03-22T16:20:05.278Z,94344.00
2023-03-22T16:21:05.328Z,94344.00
2023-03-22T16:22:05.449Z,94346.00
2023-03-22T16:25:05.580Z,94350.00
2023-03-22T16:27:05.568Z,94354.00
2023-03-22T16:28:05.596Z,94354.00
2023-03-22T16:29:05.638Z,94359.00
2023-03-22T16:30:05.688Z,94357.00
2023-03-22T16:31:05.794Z,94357.00
2023-03-22T16:34:05.830Z,94359.00
2023-03-22T16:35:05.889Z,94356.00
2023-03-22T16:36:06.362Z,94357.00
2023-03-22T16:37:05.966Z,94361.00
2023-03-22T16:38:06.063Z,94363.00
2023-03-22T16:39:06.075Z,94361.00
2023-03-22T16:40:06.077Z,94363.00
2023-03-22T16:41:06.182Z,94365.00
2023-03-22T16:42:06.236Z,94361.00
2023-03-22T16:43:06.237Z,94365.00
2023-03-22T16:44:06.320Z,94367.00
2023-03-22T16:45:06.357Z,94367.00
2023-03-22T16:46:06.455Z,94369.00
2023-03-22T16:47:06.476Z,94371.00
2023-03-22T16:48:06.503Z,94379.00
2023-03-22T16:49:06.524Z,94371.00
2023-03-22T16:50:06.603Z,94379.00
2023-03-22T16:51:06.630Z,94371.00
2023-03-22T16:52:06.711Z,94379.00
2023-03-22T16:53:06.767Z,94371.00
2023-03-22T16:54:06.771Z,94381.00
2023-03-22T16:55:06.842Z,94379.00
2023-03-22T16:56:06.916Z,94379.00
2023-03-22T16:57:06.958Z,94383.00
2023-03-22T16:58:07.015Z,94381.00
2023-03-22T16:59:07.061Z,94385.00
2023-03-22T17:00:07.273Z,94383.00
2023-03-22T17:01:07.177Z,94387.00
2023-03-22T17:02:07.234Z,94391.00
2023-03-22T17:03:07.306Z,94391.00
2023-03-22T17:04:07.353Z,94393.00
2023-03-22T17:05:07.483Z,94395.00
2023-03-22T17:06:07.439Z,94397.00
2023-03-22T17:07:07.494Z,94402.00
2023-03-22T17:08:07.558Z,94402.00
2023-03-22T17:09:07.612Z,94402.00
2023-03-22T17:10:07.695Z,94402.00
2023-03-22T17:11:08.204Z,94406.00
2023-03-22T17:12:07.790Z,94404.00
2023-03-22T17:13:07.840Z,94406.00
2023-03-22T17:14:07.883Z,94404.00
2023-03-22T17:15:07.973Z,94406.00
2023-03-22T17:16:08.092Z,94406.00
2023-03-22T17:17:08.089Z,94408.00
2023-03-22T17:18:08.141Z,94408.00
2023-03-22T17:19:08.414Z,94410.00
2023-03-22T17:20:08.279Z,94414.00
2023-03-22T17:21:08.292Z,94414.00
2023-03-22T17:22:08.341Z,94414.00
2023-03-22T17:23:08.408Z,94410.00
2023-03-22T17:24:08.473Z,94412.00
2023-03-22T17:25:08.510Z,94412.00
2023-03-22T17:26:08.566Z,94410.00
2023-03-22T17:27:08.627Z,94410.00
2023-03-22T17:28:08.666Z,94414.00
2023-03-22T17:29:08.712Z,94414.00
2023-03-22T17:30:08.789Z,94420.00
2023-03-22T17:31:08.876Z,94422.00
2023-03-22T17:32:12.704Z,94426.00
2023-03-22T17:33:10.122Z,94424.00
2023-03-22T17:34:08.973Z,94426.00
2023-03-22T17:37:08.969Z,94428.00
2023-03-22T17:38:09.330Z,94432.00
2023-03-22T17:39:32.386Z,94432.00
2023-03-22T17:41:09.364Z,94432.00
2023-03-22T17:42:09.231Z,94432.00
2023-03-22T17:43:09.088Z,94438.00
2023-03-22T17:44:09.093Z,94436.00
2023-03-22T17:45:10.011Z,94438.00
2023-03-22T17:46:38.308Z,94442.00
2023-03-22T17:48:10.135Z,94446.00
2023-03-22T17:52:09.130Z,94451.00
2023-03-22T17:53:20.990Z,94455.00
2023-03-22T17:54:51.784Z,94453.00
2023-03-22T17:59:09.262Z,94469.00
2023-03-22T18:00:09.261Z,94469.00
2023-03-22T18:01:09.339Z,94473.00
2023-03-22T18:02:11.837Z,94475.00
2023-03-22T18:03:09.488Z,94475.00
2023-03-22T18:04:09.330Z,94481.00
2023-03-22T18:05:09.339Z,94483.00
2023-03-22T18:06:09.363Z,94481.00
2023-03-22T18:07:09.380Z,94487.00
2023-03-22T18:08:26.208Z,94487.00
2023-03-22T18:09:10.419Z,94489.00
2023-03-22T18:10:09.416Z,94491.00
2023-03-22T18:11:09.425Z,94491.00
2023-03-22T18:12:09.451Z,94495.00
2023-03-22T18:13:09.478Z,94496.00
2023-03-22T18:14:20.969Z,94498.00
2023-03-22T18:15:10.456Z,94498.00
2023-03-22T18:19:09.525Z,94508.00
2023-03-22T18:20:20.775Z,94510.00
2023-03-22T18:21:10.533Z,94512.00
2023-03-22T18:22:09.555Z,94516.00
2023-03-22T18:23:09.552Z,94518.00
2023-03-22T18:24:09.612Z,94518.00
2023-03-22T18:26:22.199Z,94526.00
2023-03-22T18:27:11.494Z,94526.00
2023-03-22T18:31:09.744Z,94536.00
2023-03-22T18:33:09.713Z,94536.00
2023-03-22T18:34:09.755Z,94538.00
2023-03-22T18:35:09.786Z,94542.00
2023-03-22T18:38:09.858Z,94544.00
2023-03-22T18:40:45.318Z,94548.00
2023-03-22T18:41:34.499Z,94548.00
2023-03-22T18:42:18.956Z,94550.00
2023-03-22T18:43:10.893Z,94551.00
2023-03-22T18:44:09.882Z,94551.00
2023-03-22T18:45:10.615Z,94555.00
2023-03-22T18:46:19.068Z,94557.00
2023-03-22T18:47:11.020Z,94559.00
2023-03-22T18:48:09.990Z,94561.00
2023-03-22T18:49:09.992Z,94561.00
2023-03-22T18:50:10.033Z,94565.00
2023-03-22T18:53:18.438Z,94567.00
2023-03-22T18:54:11.044Z,94569.00
2023-03-22T18:59:10.102Z,94573.00
2023-03-22T19:00:10.125Z,94571.00
2023-03-22T19:01:10.155Z,94571.00
2023-03-22T19:02:15.986Z,94573.00
2023-03-22T19:03:11.157Z,94573.00
2023-03-22T19:04:10.205Z,94575.00
2023-03-22T19:05:10.195Z,94575.00
2023-03-22T19:06:10.211Z,94575.00
2023-03-22T19:07:19.871Z,94577.00
2023-03-22T19:08:25.724Z,94575.00
2023-03-22T19:09:11.252Z,94577.00
2023-03-22T19:10:10.252Z,94575.00
2023-03-22T19:11:10.281Z,94579.00
2023-03-22T19:12:10.285Z,94579.00
2023-03-22T19:13:11.256Z,94581.00
2023-03-22T19:15:03.057Z,94579.00
2023-03-22T19:15:34.414Z,94585.00
2023-03-22T19:16:11.364Z,94585.00
2023-03-22T19:17:10.378Z,94585.00
2023-03-22T19:18:10.410Z,94585.00
2023-03-22T19:19:10.404Z,94587.00
2023-03-22T19:20:10.445Z,94587.00
2023-03-22T19:21:17.631Z,94587.00
2023-03-22T19:22:11.508Z,94591.00
2023-03-22T19:23:10.484Z,94589.00
2023-03-22T19:24:10.490Z,94589.00
2023-03-22T19:25:10.495Z,94589.00
2023-03-22T19:26:10.553Z,94591.00
2023-03-22T19:29:10.605Z,94589.00
2023-03-22T19:30:10.631Z,94591.00
2023-03-22T19:31:10.661Z,94591.00
2023-03-22T19:36:10.871Z,94595.00
2023-03-22T19:37:10.934Z,94595.00
2023-03-22T19:38:10.987Z,94597.00
2023-03-22T19:39:13.715Z,94598.00
2023-03-22T19:41:13.966Z,94600.00
2023-03-22T19:43:11.132Z,94600.00
2023-03-22T19:44:11.142Z,94602.00
2023-03-22T19:45:11.190Z,94600.00